sensor_id;sensor_type;location;lat;lon;timestamp;pressure;altitude;pressure_sealevel;temperature;humidity
7441;BME280;29616;51.950;8.572;2023-03-11T00:01:11;98645.56;;;1.27;100.00
7441;BME280;29616;51.950;8.572;2023-03-11T00:03:41;98653.38;;;1.30;100.00
7441;BME280;29616;51.950;8.572;2023-03-11T00:06:10;98667.94;;;1.28;100.00
7441;BME280;29616;51.950;8.572;2023-03-11T00:08:39;98664.31;;;1.17;100.00
7441;BME280;29616;51.950;8.572;2023-03-11T00:11:07;98676.28;;;1.25;100.00
7441;BME280;29616;51.950;8.572;2023-03-11T00:13:36;98693.84;;;1.29;100.00
7441;BME280;29616;51.950;8.572;2023-03-11T00:16:05;98683.88;;;1.19;100.00
7441;BME280;29616;51.950;8.572;2023-03-11T00:18:34;98689.28;;;1.19;100.00
7441;BME280;29616;51.950;8.572;2023-03-11T00:21:04;98685.75;;;1.08;100.00
7441;BME280;29616;51.950;8.572;2023-03-11T00:23:34;98705.56;;;1.07;100.00
7441;BME280;29616;51.950;8.572;2023-03-11T00:26:02;98706.78;;;1.14;100.00
7441;BME280;29616;51.950;8.572;2023-03-11T00:28:31;98713.41;;;0.99;100.00
7441;BME280;29616;51.950;8.572;2023-03-11T00:31:01;98727.44;;;1.13;100.00
7441;BME280;29616;51.950;8.572;2023-03-11T00:33:29;98725.00;;;1.10;100.00
7441;BME280;29616;51.950;8.572;2023-03-11T00:35:57;98730.00;;;1.15;100.00
7441;BME280;29616;51.950;8.572;2023-03-11T00:38:28;98738.88;;;0.95;100.00
7441;BME280;29616;51.950;8.572;2023-03-11T00:40:57;98735.22;;;0.96;100.00
7441;BME280;29616;51.950;8.572;2023-03-11T00:43:30;98749.13;;;1.01;100.00
7441;BME280;29616;51.950;8.572;2023-03-11T00:45:58;98756.59;;;0.97;100.00
7441;BME280;29616;51.950;8.572;2023-03-11T00:48:29;98767.34;;;0.97;100.00
7441;BME280;29616;51.950;8.572;2023-03-11T00:50:58;98769.16;;;1.08;100.00
7441;BME280;29616;51.950;8.572;2023-03-11T00:53:28;98783.47;;;1.08;100.00
7441;BME280;29616;51.950;8.572;2023-03-11T00:55:56;98787.84;;;1.20;100.00
7441;BME280;29616;51.950;8.572;2023-03-11T00:58:27;98800.56;;;1.18;100.00
7441;BME280;29616;51.950;8.572;2023-03-11T01:00:56;98781.91;;;1.06;100.00
7441;BME280;29616;51.950;8.572;2023-03-11T01:03:25;98798.16;;;1.04;100.00
7441;BME280;29616;51.950;8.572;2023-03-11T01:05:54;98798.75;;;1.08;100.00
7441;BME280;29616;51.950;8.572;2023-03-11T01:08:23;98780.19;;;0.94;100.00
7441;BME280;29616;51.950;8.572;2023-03-11T01:10:54;98800.72;;;1.06;100.00
7441;BME280;29616;51.950;8.572;2023-03-11T01:13:23;98796.94;;;0.97;100.00
7441;BME280;29616;51.950;8.572;2023-03-11T01:15:51;98810.88;;;1.02;100.00
7441;BME280;29616;51.950;8.572;2023-03-11T01:18:21;98800.34;;;0.99;100.00
7441;BME280;29616;51.950;8.572;2023-03-11T01:20:52;98808.91;;;1.04;100.00
7441;BME280;29616;51.950;8.572;2023-03-11T01:23:21;98813.94;;;1.09;100.00
7441;BME280;29616;51.950;8.572;2023-03-11T01:25:54;98817.34;;;1.00;100.00
7441;BME280;29616;51.950;8.572;2023-03-11T01:28:25;98829.94;;;0.99;100.00
7441;BME280;29616;51.950;8.572;2023-03-11T01:30:53;98818.31;;;1.10;100.00
7441;BME280;29616;51.950;8.572;2023-03-11T01:33:24;98801.59;;;0.84;100.00
7441;BME280;29616;51.950;8.572;2023-03-11T01:35:52;98838.88;;;1.11;100.00
7441;BME280;29616;51.950;8.572;2023-03-11T01:38:21;98838.16;;;1.09;100.00
7441;BME280;29616;51.950;8.572;2023-03-11T01:40:51;98845.13;;;1.00;100.00
7441;BME280;29616;51.950;8.572;2023-03-11T01:46:25;98844.97;;;1.13;100.00
7441;BME280;29616;51.950;8.572;2023-03-11T01:48:56;98834.22;;;1.13;100.00
7441;BME280;29616;51.950;8.572;2023-03-11T01:51:29;98852.06;;;1.25;100.00
7441;BME280;29616;51.950;8.572;2023-03-11T01:54:02;98848.41;;;1.15;100.00
7441;BME280;29616;51.950;8.572;2023-03-11T01:56:33;98856.59;;;1.13;100.00
7441;BME280;29616;51.950;8.572;2023-03-11T01:59:03;98850.13;;;1.16;100.00
7441;BME280;29616;51.950;8.572;2023-03-11T02:01:35;98865.41;;;1.15;100.00
7441;BME280;29616;51.950;8.572;2023-03-11T02:04:09;98868.56;;;1.20;100.00
7441;BME280;29616;51.950;8.572;2023-03-11T02:06:37;98872.50;;;1.16;100.00
7441;BME280;29616;51.950;8.572;2023-03-11T02:09:08;98877.13;;;1.26;100.00
7441;BME280;29616;51.950;8.572;2023-03-11T02:11:36;98868.22;;;1.14;100.00
7441;BME280;29616;51.950;8.572;2023-03-11T02:14:05;98861.84;;;1.15;100.00
7441;BME280;29616;51.950;8.572;2023-03-11T02:16:36;98867.22;;;1.15;100.00
7441;BME280;29616;51.950;8.572;2023-03-11T02:19:10;98854.03;;;1.12;100.00
7441;BME280;29616;51.950;8.572;2023-03-11T02:21:43;98870.94;;;1.14;100.00
7441;BME280;29616;51.950;8.572;2023-03-11T02:24:14;98873.72;;;1.12;100.00
7441;BME280;29616;51.950;8.572;2023-03-11T02:26:53;98875.44;;;1.25;100.00
7441;BME280;29616;51.950;8.572;2023-03-11T02:29:24;98877.91;;;1.16;100.00
7441;BME280;29616;51.950;8.572;2023-03-11T02:31:55;98877.91;;;1.16;100.00
7441;BME280;29616;51.950;8.572;2023-03-11T02:34:27;98879.34;;;1.09;100.00
7441;BME280;29616;51.950;8.572;2023-03-11T02:36:55;98855.16;;;0.98;100.00
7441;BME280;29616;51.950;8.572;2023-03-11T02:39:30;98885.97;;;1.05;100.00
7441;BME280;29616;51.950;8.572;2023-03-11T02:42:03;98885.25;;;1.03;100.00
7441;BME280;29616;51.950;8.572;2023-03-11T02:44:33;98871.66;;;0.94;100.00
7441;BME280;29616;51.950;8.572;2023-03-11T02:47:02;98898.19;;;1.20;100.00
7441;BME280;29616;51.950;8.572;2023-03-11T02:49:32;98898.06;;;1.22;100.00
7441;BME280;29616;51.950;8.572;2023-03-11T02:52:02;98890.25;;;1.08;100.00
7441;BME280;29616;51.950;8.572;2023-03-11T02:54:32;98903.84;;;1.06;100.00
7441;BME280;29616;51.950;8.572;2023-03-11T02:57:03;98902.84;;;1.07;100.00
7441;BME280;29616;51.950;8.572;2023-03-11T02:59:33;98912.13;;;1.14;100.00
7441;BME280;29616;51.950;8.572;2023-03-11T03:02:03;98911.53;;;1.11;100.00
7441;BME280;29616;51.950;8.572;2023-03-11T03:04:31;98910.28;;;1.15;100.00
7441;BME280;29616;51.950;8.572;2023-03-11T03:07:01;98907.50;;;1.05;100.00
7441;BME280;29616;51.950;8.572;2023-03-11T03:09:30;98916.53;;;1.04;100.00
7441;BME280;29616;51.950;8.572;2023-03-11T03:12:00;98915.69;;;0.93;100.00
7441;BME280;29616;51.950;8.572;2023-03-11T03:14:33;98929.25;;;0.91;100.00
7441;BME280;29616;51.950;8.572;2023-03-11T03:17:01;98925.09;;;0.87;100.00
7441;BME280;29616;51.950;8.572;2023-03-11T03:19:32;98923.59;;;0.83;100.00
7441;BME280;29616;51.950;8.572;2023-03-11T03:22:00;98928.25;;;0.81;100.00
7441;BME280;29616;51.950;8.572;2023-03-11T03:24:29;98926.53;;;0.80;100.00
7441;BME280;29616;51.950;8.572;2023-03-11T03:26:57;98938.53;;;0.87;100.00
7441;BME280;29616;51.950;8.572;2023-03-11T03:29:29;98949.06;;;0.90;100.00
7441;BME280;29616;51.950;8.572;2023-03-11T03:31:59;98943.69;;;0.90;100.00
7441;BME280;29616;51.950;8.572;2023-03-11T03:34:29;98942.94;;;0.88;100.00
7441;BME280;29616;51.950;8.572;2023-03-11T03:36:58;98952.25;;;0.95;100.00
7441;BME280;29616;51.950;8.572;2023-03-11T03:39:26;98958.63;;;1.05;100.00
7441;BME280;29616;51.950;8.572;2023-03-11T03:41:57;98968.88;;;1.00;100.00
7441;BME280;29616;51.950;8.572;2023-03-11T03:44:30;98969.97;;;0.87;100.00
7441;BME280;29616;51.950;8.572;2023-03-11T03:47:00;98982.31;;;0.89;100.00
7441;BME280;29616;51.950;8.572;2023-03-11T03:49:30;98978.03;;;0.87;100.00
7441;BME280;29616;51.950;8.572;2023-03-11T03:51:59;98981.72;;;0.97;100.00
7441;BME280;29616;51.950;8.572;2023-03-11T03:54:30;98966.88;;;0.80;100.00
7441;BME280;29616;51.950;8.572;2023-03-11T03:56:59;98994.78;;;0.90;100.00
7441;BME280;29616;51.950;8.572;2023-03-11T03:59:30;98990.66;;;0.97;100.00
7441;BME280;29616;51.950;8.572;2023-03-11T04:02:01;98985.50;;;0.94;100.00
7441;BME280;29616;51.950;8.572;2023-03-11T04:04:30;98975.34;;;0.87;100.00
7441;BME280;29616;51.950;8.572;2023-03-11T04:06:59;98986.72;;;0.90;100.00
7441;BME280;29616;51.950;8.572;2023-03-11T04:09:28;98992.84;;;0.92;100.00
7441;BME280;29616;51.950;8.572;2023-03-11T04:11:58;98994.66;;;0.92;100.00
7441;BME280;29616;51.950;8.572;2023-03-11T04:14:32;99003.38;;;0.95;100.00
7441;BME280;29616;51.950;8.572;2023-03-11T04:17:03;99003.44;;;0.83;100.00
7441;BME280;29616;51.950;8.572;2023-03-11T04:19:32;99004.94;;;0.87;100.00
7441;BME280;29616;51.950;8.572;2023-03-11T04:22:00;99008.25;;;1.01;100.00
7441;BME280;29616;51.950;8.572;2023-03-11T04:24:30;98993.31;;;0.86;100.00
7441;BME280;29616;51.950;8.572;2023-03-11T04:26:58;98990.38;;;0.89;100.00
7441;BME280;29616;51.950;8.572;2023-03-11T04:29:31;99026.13;;;1.02;100.00
7441;BME280;29616;51.950;8.572;2023-03-11T04:31:59;99031.25;;;1.05;100.00
7441;BME280;29616;51.950;8.572;2023-03-11T04:34:29;99035.16;;;1.01;100.00
7441;BME280;29616;51.950;8.572;2023-03-11T04:36:59;99032.97;;;0.95;100.00
7441;BME280;29616;51.950;8.572;2023-03-11T04:39:31;99045.53;;;0.95;100.00
7441;BME280;29616;51.950;8.572;2023-03-11T04:42:00;99047.38;;;0.94;100.00
7441;BME280;29616;51.950;8.572;2023-03-11T04:44:33;99052.22;;;0.78;100.00
7441;BME280;29616;51.950;8.572;2023-03-11T04:47:05;99049.28;;;0.81;100.00
7441;BME280;29616;51.950;8.572;2023-03-11T04:49:37;99053.97;;;0.90;100.00
7441;BME280;29616;51.950;8.572;2023-03-11T04:52:05;99063.00;;;0.89;100.00
7441;BME280;29616;51.950;8.572;2023-03-11T04:54:34;99071.50;;;0.96;100.00
7441;BME280;29616;51.950;8.572;2023-03-11T04:57:04;99068.53;;;0.99;100.00
7441;BME280;29616;51.950;8.572;2023-03-11T04:59:35;99064.25;;;0.96;100.00
7441;BME280;29616;51.950;8.572;2023-03-11T05:02:03;99075.78;;;0.98;100.00
7441;BME280;29616;51.950;8.572;2023-03-11T05:04:32;99073.09;;;0.98;100.00
7441;BME280;29616;51.950;8.572;2023-03-11T05:07:03;99069.84;;;0.93;100.00
7441;BME280;29616;51.950;8.572;2023-03-11T05:09:33;99083.31;;;0.93;100.00
7441;BME280;29616;51.950;8.572;2023-03-11T05:12:03;99078.59;;;0.73;100.00
7441;BME280;29616;51.950;8.572;2023-03-11T05:14:35;99086.25;;;0.90;100.00
7441;BME280;29616;51.950;8.572;2023-03-11T05:17:04;99088.41;;;0.85;100.00
7441;BME280;29616;51.950;8.572;2023-03-11T05:19:33;99092.47;;;0.91;100.00
7441;BME280;29616;51.950;8.572;2023-03-11T05:22:10;99095.06;;;0.92;100.00
7441;BME280;29616;51.950;8.572;2023-03-11T05:24:40;99091.09;;;0.85;100.00
7441;BME280;29616;51.950;8.572;2023-03-11T05:27:10;99093.28;;;0.80;100.00
7441;BME280;29616;51.950;8.572;2023-03-11T05:29:39;99081.88;;;0.66;100.00
7441;BME280;29616;51.950;8.572;2023-03-11T05:32:10;99095.25;;;0.54;100.00
7441;BME280;29616;51.950;8.572;2023-03-11T05:34:38;99094.97;;;0.70;100.00
7441;BME280;29616;51.950;8.572;2023-03-11T05:37:06;99094.88;;;0.72;100.00
7441;BME280;29616;51.950;8.572;2023-03-11T05:39:37;99052.75;;;0.36;100.00
7441;BME280;29616;51.950;8.572;2023-03-11T05:42:07;99097.81;;;0.56;100.00
7441;BME280;29616;51.950;8.572;2023-03-11T05:44:38;99101.88;;;0.61;100.00
7441;BME280;29616;51.950;8.572;2023-03-11T05:47:08;99094.69;;;0.38;100.00
7441;BME280;29616;51.950;8.572;2023-03-11T05:49:37;99112.69;;;0.49;100.00
7441;BME280;29616;51.950;8.572;2023-03-11T05:52:06;99114.00;;;0.43;100.00
7441;BME280;29616;51.950;8.572;2023-03-11T05:54:36;99119.84;;;0.37;100.00
7441;BME280;29616;51.950;8.572;2023-03-11T05:57:06;99133.00;;;0.29;100.00
7441;BME280;29616;51.950;8.572;2023-03-11T05:59:34;99135.28;;;0.23;100.00
7441;BME280;29616;51.950;8.572;2023-03-11T06:02:04;99140.00;;;0.19;100.00
7441;BME280;29616;51.950;8.572;2023-03-11T06:04:34;99147.44;;;0.16;100.00
7441;BME280;29616;51.950;8.572;2023-03-11T06:07:04;99115.25;;;-0.10;100.00
7441;BME280;29616;51.950;8.572;2023-03-11T06:09:37;99146.16;;;0.09;100.00
7441;BME280;29616;51.950;8.572;2023-03-11T06:12:11;99144.44;;;0.08;100.00
7441;BME280;29616;51.950;8.572;2023-03-11T06:15:05;99153.25;;;0.10;100.00
7441;BME280;29616;51.950;8.572;2023-03-11T06:17:36;99159.28;;;0.13;100.00
7441;BME280;29616;51.950;8.572;2023-03-11T06:20:07;99160.22;;;0.12;100.00
7441;BME280;29616;51.950;8.572;2023-03-11T06:22:38;99155.06;;;0.09;100.00
7441;BME280;29616;51.950;8.572;2023-03-11T06:25:09;99162.88;;;0.25;100.00
7441;BME280;29616;51.950;8.572;2023-03-11T06:27:41;99160.72;;;0.30;100.00
7441;BME280;29616;51.950;8.572;2023-03-11T06:30:12;99175.28;;;0.51;100.00
7441;BME280;29616;51.950;8.572;2023-03-11T06:32:47;99165.03;;;0.56;100.00
7441;BME280;29616;51.950;8.572;2023-03-11T06:35:16;99179.31;;;0.69;100.00
7441;BME280;29616;51.950;8.572;2023-03-11T06:37:45;99177.81;;;0.65;100.00
7441;BME280;29616;51.950;8.572;2023-03-11T06:40:17;99175.84;;;0.80;100.00
7441;BME280;29616;51.950;8.572;2023-03-11T06:42:46;99178.91;;;0.86;100.00
7441;BME280;29616;51.950;8.572;2023-03-11T06:45:17;99159.56;;;0.81;100.00
7441;BME280;29616;51.950;8.572;2023-03-11T06:47:47;99183.03;;;1.03;100.00
7441;BME280;29616;51.950;8.572;2023-03-11T06:50:16;99190.53;;;1.10;100.00
7441;BME280;29616;51.950;8.572;2023-03-11T06:52:44;99195.47;;;1.16;100.00
7441;BME280;29616;51.950;8.572;2023-03-11T06:55:13;99202.53;;;1.17;100.00
7441;BME280;29616;51.950;8.572;2023-03-11T06:57:42;99205.00;;;1.20;100.00
7441;BME280;29616;51.950;8.572;2023-03-11T07:00:13;99197.88;;;1.08;100.00
7441;BME280;29616;51.950;8.572;2023-03-11T07:02:48;99219.03;;;1.37;100.00
7441;BME280;29616;51.950;8.572;2023-03-11T07:05:17;99219.97;;;1.25;100.00
7441;BME280;29616;51.950;8.572;2023-03-11T07:07:47;99220.97;;;1.35;100.00
7441;BME280;29616;51.950;8.572;2023-03-11T07:10:16;99228.88;;;1.49;100.00
7441;BME280;29616;51.950;8.572;2023-03-11T07:12:47;99233.91;;;1.53;100.00
7441;BME280;29616;51.950;8.572;2023-03-11T07:15:16;99239.38;;;1.52;100.00
7441;BME280;29616;51.950;8.572;2023-03-11T07:17:45;99233.44;;;1.59;100.00
7441;BME280;29616;51.950;8.572;2023-03-11T07:20:13;99239.69;;;1.71;100.00
7441;BME280;29616;51.950;8.572;2023-03-11T07:22:42;99239.69;;;1.71;100.00
7441;BME280;29616;51.950;8.572;2023-03-11T07:25:10;99245.63;;;1.87;100.00
7441;BME280;29616;51.950;8.572;2023-03-11T07:27:38;99251.47;;;1.81;100.00
7441;BME280;29616;51.950;8.572;2023-03-11T07:30:11;99241.66;;;1.69;100.00
7441;BME280;29616;51.950;8.572;2023-03-11T07:32:41;99273.53;;;1.75;100.00
7441;BME280;29616;51.950;8.572;2023-03-11T07:35:09;99279.91;;;1.85;100.00
7441;BME280;29616;51.950;8.572;2023-03-11T07:37:38;99272.13;;;2.04;100.00
7441;BME280;29616;51.950;8.572;2023-03-11T07:40:08;99281.09;;;2.27;100.00
7441;BME280;29616;51.950;8.572;2023-03-11T07:42:37;99284.19;;;2.56;100.00
7441;BME280;29616;51.950;8.572;2023-03-11T07:45:11;99272.19;;;2.71;100.00
7441;BME280;29616;51.950;8.572;2023-03-11T07:47:40;99293.75;;;2.60;100.00
7441;BME280;29616;51.950;8.572;2023-03-11T07:50:10;99285.66;;;4.41;100.00
7441;BME280;29616;51.950;8.572;2023-03-11T07:52:39;99296.81;;;5.17;100.00
7441;BME280;29616;51.950;8.572;2023-03-11T07:55:08;99309.22;;;3.45;100.00
7441;BME280;29616;51.950;8.572;2023-03-11T07:57:37;99325.38;;;3.13;100.00
7441;BME280;29616;51.950;8.572;2023-03-11T08:00:08;99300.25;;;2.57;100.00
7441;BME280;29616;51.950;8.572;2023-03-11T08:02:41;99316.25;;;3.36;100.00
7441;BME280;29616;51.950;8.572;2023-03-11T08:05:10;99317.88;;;4.23;100.00
7441;BME280;29616;51.950;8.572;2023-03-11T08:07:40;99330.53;;;5.04;100.00
7441;BME280;29616;51.950;8.572;2023-03-11T08:10:10;99328.34;;;5.28;100.00
7441;BME280;29616;51.950;8.572;2023-03-11T08:12:38;99328.47;;;6.04;100.00
7441;BME280;29616;51.950;8.572;2023-03-11T08:15:10;99327.47;;;5.86;100.00
7441;BME280;29616;51.950;8.572;2023-03-11T08:17:40;99320.78;;;6.00;100.00
7441;BME280;29616;51.950;8.572;2023-03-11T08:20:11;99342.44;;;6.48;100.00
7441;BME280;29616;51.950;8.572;2023-03-11T08:22:40;99340.91;;;6.26;100.00
7441;BME280;29616;51.950;8.572;2023-03-11T08:25:23;99352.41;;;7.50;100.00
7441;BME280;29616;51.950;8.572;2023-03-11T08:27:52;99323.88;;;8.16;100.00
7441;BME280;29616;51.950;8.572;2023-03-11T08:30:23;99355.69;;;7.16;100.00
7441;BME280;29616;51.950;8.572;2023-03-11T08:32:52;99356.06;;;6.94;100.00
7441;BME280;29616;51.950;8.572;2023-03-11T08:35:21;99363.91;;;7.07;100.00
7441;BME280;29616;51.950;8.572;2023-03-11T08:37:49;99353.72;;;7.18;100.00
7441;BME280;29616;51.950;8.572;2023-03-11T08:40:18;99367.59;;;7.06;100.00
7441;BME280;29616;51.950;8.572;2023-03-11T08:42:48;99364.56;;;7.18;100.00
7441;BME280;29616;51.950;8.572;2023-03-11T08:45:17;99367.75;;;7.04;100.00
7441;BME280;29616;51.950;8.572;2023-03-11T08:47:45;99367.59;;;7.70;100.00
7441;BME280;29616;51.950;8.572;2023-03-11T08:50:17;99359.53;;;7.23;100.00
7441;BME280;29616;51.950;8.572;2023-03-11T08:52:46;99369.66;;;7.31;100.00
7441;BME280;29616;51.950;8.572;2023-03-11T08:55:16;99381.09;;;7.62;100.00
7441;BME280;29616;51.950;8.572;2023-03-11T08:57:50;99377.91;;;7.39;100.00
7441;BME280;29616;51.950;8.572;2023-03-11T09:00:21;99369.53;;;6.77;100.00
7441;BME280;29616;51.950;8.572;2023-03-11T09:02:50;99391.72;;;7.55;100.00
7441;BME280;29616;51.950;8.572;2023-03-11T09:05:20;99396.56;;;8.06;100.00
7441;BME280;29616;51.950;8.572;2023-03-11T09:07:49;99398.72;;;8.30;100.00
7441;BME280;29616;51.950;8.572;2023-03-11T09:10:18;99394.00;;;7.23;100.00
7441;BME280;29616;51.950;8.572;2023-03-11T09:12:47;99382.94;;;7.61;100.00
7441;BME280;29616;51.950;8.572;2023-03-11T09:15:16;99400.34;;;8.40;100.00
7441;BME280;29616;51.950;8.572;2023-03-11T09:17:47;99402.03;;;7.79;100.00
7441;BME280;29616;51.950;8.572;2023-03-11T09:20:17;99402.88;;;6.69;100.00
7441;BME280;29616;51.950;8.572;2023-03-11T09:22:47;99405.72;;;6.77;100.00
7441;BME280;29616;51.950;8.572;2023-03-11T09:25:17;99414.06;;;7.12;100.00
7441;BME280;29616;51.950;8.572;2023-03-11T09:27:46;99409.94;;;8.17;100.00
7441;BME280;29616;51.950;8.572;2023-03-11T09:30:16;99402.78;;;8.43;100.00
7441;BME280;29616;51.950;8.572;2023-03-11T09:32:44;99389.59;;;8.21;100.00
7441;BME280;29616;51.950;8.572;2023-03-11T09:35:13;99409.19;;;7.80;100.00
7441;BME280;29616;51.950;8.572;2023-03-11T09:37:42;99407.69;;;7.95;100.00
7441;BME280;29616;51.950;8.572;2023-03-11T09:40:15;99382.81;;;8.61;100.00
7441;BME280;29616;51.950;8.572;2023-03-11T09:42:48;99409.78;;;8.89;100.00
7441;BME280;29616;51.950;8.572;2023-03-11T09:45:18;99374.19;;;8.47;100.00
7441;BME280;29616;51.950;8.572;2023-03-11T09:47:59;99396.50;;;8.69;100.00
7441;BME280;29616;51.950;8.572;2023-03-11T09:50:30;99403.88;;;8.76;100.00
7441;BME280;29616;51.950;8.572;2023-03-11T09:53:08;99405.81;;;8.40;100.00
7441;BME280;29616;51.950;8.572;2023-03-11T09:55:45;99406.91;;;8.20;100.00
7441;BME280;29616;51.950;8.572;2023-03-11T09:58:18;99409.25;;;8.86;100.00
7441;BME280;29616;51.950;8.572;2023-03-11T10:00:50;99417.00;;;8.37;100.00
7441;BME280;29616;51.950;8.572;2023-03-11T10:03:28;99424.38;;;7.09;100.00
7441;BME280;29616;51.950;8.572;2023-03-11T10:06:15;99426.53;;;7.79;100.00
7441;BME280;29616;51.950;8.572;2023-03-11T10:08:48;99421.28;;;7.68;100.00
7441;BME280;29616;51.950;8.572;2023-03-11T10:11:28;99428.31;;;7.33;100.00
7441;BME280;29616;51.950;8.572;2023-03-11T10:14:01;99436.66;;;8.04;100.00
7441;BME280;29616;51.950;8.572;2023-03-11T10:16:34;99427.28;;;8.16;100.00
7441;BME280;29616;51.950;8.572;2023-03-11T10:19:10;99418.72;;;8.99;100.00
7441;BME280;29616;51.950;8.572;2023-03-11T10:21:46;99417.19;;;8.26;100.00
7441;BME280;29616;51.950;8.572;2023-03-11T10:24:26;99434.69;;;8.06;100.00
7441;BME280;29616;51.950;8.572;2023-03-11T10:27:05;99440.81;;;8.08;100.00
7441;BME280;29616;51.950;8.572;2023-03-11T10:29:39;99432.88;;;9.54;100.00
7441;BME280;29616;51.950;8.572;2023-03-11T10:32:12;99440.09;;;9.12;100.00
7441;BME280;29616;51.950;8.572;2023-03-11T10:34:42;99448.22;;;9.04;100.00
7441;BME280;29616;51.950;8.572;2023-03-11T10:37:16;99442.59;;;8.44;100.00
7441;BME280;29616;51.950;8.572;2023-03-11T10:39:46;99467.38;;;7.23;100.00
7441;BME280;29616;51.950;8.572;2023-03-11T10:42:17;99451.88;;;8.95;100.00
7441;BME280;29616;51.950;8.572;2023-03-11T10:44:47;99470.34;;;9.78;100.00
7441;BME280;29616;51.950;8.572;2023-03-11T10:47:20;99465.81;;;9.61;100.00
7441;BME280;29616;51.950;8.572;2023-03-11T10:49:50;99441.97;;;9.11;100.00
7441;BME280;29616;51.950;8.572;2023-03-11T10:52:19;99478.06;;;8.52;100.00
7441;BME280;29616;51.950;8.572;2023-03-11T10:54:57;99463.78;;;9.37;100.00
7441;BME280;29616;51.950;8.572;2023-03-11T10:57:32;99465.16;;;8.54;100.00
7441;BME280;29616;51.950;8.572;2023-03-11T11:00:03;99433.25;;;7.75;100.00
7441;BME280;29616;51.950;8.572;2023-03-11T11:02:37;99459.56;;;9.43;100.00
7441;BME280;29616;51.950;8.572;2023-03-11T11:05:21;99452.03;;;10.04;100.00
7441;BME280;29616;51.950;8.572;2023-03-11T11:08:02;99459.19;;;9.12;100.00
7441;BME280;29616;51.950;8.572;2023-03-11T11:10:31;99449.59;;;9.26;100.00
7441;BME280;29616;51.950;8.572;2023-03-11T11:13:04;99455.88;;;9.52;100.00
7441;BME280;29616;51.950;8.572;2023-03-11T11:15:50;99459.25;;;10.87;100.00
7441;BME280;29616;51.950;8.572;2023-03-11T11:18:21;99464.72;;;10.95;100.00
7441;BME280;29616;51.950;8.572;2023-03-11T11:20:55;99459.84;;;9.57;100.00
7441;BME280;29616;51.950;8.572;2023-03-11T11:23:35;99457.47;;;9.62;100.00
7441;BME280;29616;51.950;8.572;2023-03-11T11:26:11;99463.75;;;9.89;100.00
7441;BME280;29616;51.950;8.572;2023-03-11T11:28:43;99471.97;;;9.97;100.00
7441;BME280;29616;51.950;8.572;2023-03-11T11:31:21;99445.72;;;11.10;100.00
7441;BME280;29616;51.950;8.572;2023-03-11T11:33:52;99442.38;;;10.18;100.00
7441;BME280;29616;51.950;8.572;2023-03-11T11:36:26;99430.84;;;10.40;100.00
7441;BME280;29616;51.950;8.572;2023-03-11T11:38:55;99469.22;;;10.30;100.00
7441;BME280;29616;51.950;8.572;2023-03-11T11:41:27;99468.38;;;10.46;100.00
7441;BME280;29616;51.950;8.572;2023-03-11T11:44:00;99462.66;;;9.73;100.00
7441;BME280;29616;51.950;8.572;2023-03-11T11:46:33;99470.47;;;10.10;100.00
7441;BME280;29616;51.950;8.572;2023-03-11T11:49:06;99455.63;;;10.63;100.00
7441;BME280;29616;51.950;8.572;2023-03-11T11:51:40;99443.13;;;11.41;100.00
7441;BME280;29616;51.950;8.572;2023-03-11T11:54:19;99453.00;;;11.74;100.00
7441;BME280;29616;51.950;8.572;2023-03-11T11:56:54;99429.06;;;12.38;97.21
7441;BME280;29616;51.950;8.572;2023-03-11T11:59:25;99426.25;;;11.84;95.80
7441;BME280;29616;51.950;8.572;2023-03-11T12:01:59;99412.75;;;11.04;92.88
7441;BME280;29616;51.950;8.572;2023-03-11T12:04:37;99459.06;;;9.73;100.00
7441;BME280;29616;51.950;8.572;2023-03-11T12:07:18;99469.03;;;9.56;100.00
7441;BME280;29616;51.950;8.572;2023-03-11T12:09:52;99448.72;;;8.82;100.00
7441;BME280;29616;51.950;8.572;2023-03-11T12:12:36;99467.88;;;8.54;100.00
7441;BME280;29616;51.950;8.572;2023-03-11T12:15:12;99468.06;;;7.34;100.00
7441;BME280;29616;51.950;8.572;2023-03-11T12:17:46;99466.56;;;8.94;100.00
7441;BME280;29616;51.950;8.572;2023-03-11T12:20:18;99466.31;;;10.32;100.00
7441;BME280;29616;51.950;8.572;2023-03-11T12:22:58;99461.22;;;10.37;98.15
7441;BME280;29616;51.950;8.572;2023-03-11T12:25:34;99457.59;;;9.87;100.00
7441;BME280;29616;51.950;8.572;2023-03-11T12:28:13;99450.00;;;11.13;100.00
7441;BME280;29616;51.950;8.572;2023-03-11T12:30:46;99452.03;;;10.62;100.00
7441;BME280;29616;51.950;8.572;2023-03-11T12:33:22;99452.50;;;11.71;90.35
7441;BME280;29616;51.950;8.572;2023-03-11T12:35:53;99455.75;;;11.58;94.92
7441;BME280;29616;51.950;8.572;2023-03-11T12:38:29;99441.41;;;9.93;99.70
7441;BME280;29616;51.950;8.572;2023-03-11T12:41:04;99453.84;;;11.75;96.40
7441;BME280;29616;51.950;8.572;2023-03-11T12:47:20;99455.78;;;10.11;88.97
7441;BME280;29616;51.950;8.572;2023-03-11T12:49:52;99441.31;;;11.09;84.28
7441;BME280;29616;51.950;8.572;2023-03-11T12:52:28;99432.81;;;11.59;85.14
7441;BME280;29616;51.950;8.572;2023-03-11T12:57:49;99461.91;;;9.97;75.95
7441;BME280;29616;51.950;8.572;2023-03-11T13:00:26;99464.53;;;9.73;85.15
7441;BME280;29616;51.950;8.572;2023-03-11T13:03:11;99460.56;;;10.09;82.72
7441;BME280;29616;51.950;8.572;2023-03-11T13:05:53;99457.84;;;10.75;80.57
7441;BME280;29616;51.950;8.572;2023-03-11T13:08:24;99446.75;;;10.61;72.88
7441;BME280;29616;51.950;8.572;2023-03-11T13:10:54;99452.03;;;11.98;69.05
7441;BME280;29616;51.950;8.572;2023-03-11T13:13:34;99455.31;;;11.93;88.72
7441;BME280;29616;51.950;8.572;2023-03-11T13:16:34;99459.66;;;11.72;90.25
7441;BME280;29616;51.950;8.572;2023-03-11T13:21:55;99448.59;;;11.49;68.42
7441;BME280;29616;51.950;8.572;2023-03-11T13:24:48;99482.41;;;11.80;67.90
7441;BME280;29616;51.950;8.572;2023-03-11T13:27:21;99481.56;;;12.27;63.35
7441;BME280;29616;51.950;8.572;2023-03-11T13:29:55;99481.63;;;12.10;65.62
7441;BME280;29616;51.950;8.572;2023-03-11T13:32:30;99486.53;;;11.76;67.17
7441;BME280;29616;51.950;8.572;2023-03-11T13:35:10;99490.94;;;12.63;64.87
7441;BME280;29616;51.950;8.572;2023-03-11T13:37:55;99464.50;;;11.37;60.93
7441;BME280;29616;51.950;8.572;2023-03-11T13:40:37;99473.78;;;10.22;70.84
7441;BME280;29616;51.950;8.572;2023-03-11T13:43:08;99489.13;;;10.81;68.00
7441;BME280;29616;51.950;8.572;2023-03-11T13:45:38;99486.41;;;11.37;73.34